Enns, Austria
Current Conditions -  °F | °C
As of 4:50 PM on Friday 19 Dec 2014 (Local Time) from LOWL Reporting Station
Scattered Clouds Scattered Clouds  
Wind Chill: 54°   Ceiling: Unl
Heat Index: 54°   Visibility: 6mi
Dew Point: 45°   Wind: 5mph
Humidity: 72%   Direction: 250°WSW
Pressure: 30"   Gusts: NA
Location:  48.22°N, 14.48°E
Report Text: LOWL 191450Z 25004KT 9999 FEW024 SCT200 12/07 Q1016 NOSIG
Loading
Personal Weather Stations






























Interactive Weather Map New forecast layout! Learn more

10-Day Weather Forecast

Advertisements
Track Severe Weather on mobile